Time;durP1;ratioP1;P1;durP2;ratioP2;P2;SDS_P1;SDS_P2;PMS_P1;PMS_P2;Temp;Humidity;BMP_temperature;BMP_pressure;BME280_temperature;BME280_humidity;BME280_pressure;Samples;Min_cycle;Max_cycle;Signal;HPM_P1;HPM_P2
2023/09/25 00:03:59;;;;;;;;;;;;;;;8.95;100.00;96452.56;10523570;28;1927;-78
2023/09/25 00:09:18;;;;;;;;;;;;;;;8.93;100.00;96457.38;10515537;28;1906;-77
2023/09/25 00:14:22;;;;;;;;;;;;;;;8.89;100.00;96456.22;10524768;28;1903;-76
2023/09/25 00:19:27;;;;;;;;;;;;;;;8.82;100.00;96452.91;10532876;28;1833;-77
2023/09/25 00:24:53;;;;;;;;;;;;;;;8.83;100.00;96449.97;10514290;28;1845;-77
2023/09/25 00:30:00;;;;;;;;;;;;;;;8.74;100.00;96439.94;10507360;28;2705;-78
2023/09/25 00:35:09;;;;;;;;;;;;;;;8.75;100.00;96442.34;10509501;28;1844;-80
2023/09/25 00:40:24;;;;;;;;;;;;;;;8.66;100.00;96439.28;10527905;28;4516;-77
2023/09/25 00:45:32;;;;;;;;;;;;;;;8.61;100.00;96439.19;10525246;28;2258;-77
2023/09/25 00:50:35;;;;;;;;;;;;;;;8.67;100.00;96442.78;10525609;28;1979;-77
2023/09/25 00:55:58;;;;;;;;;;;;;;;8.55;100.00;96434.81;10522808;28;1873;-77
2023/09/25 01:01:04;;;;;;;;;;;;;;;8.54;100.00;96441.25;10506737;28;2208;-77
2023/09/25 01:06:08;;;;;;;;;;;;;;;8.52;100.00;96435.28;10492728;28;1992;-77
2023/09/25 01:11:18;;;;;;;;;;;;;;;8.50;100.00;96450.81;10527028;28;2790;-77
2023/09/25 01:21:42;;;;;;;;;;;;;;;8.40;100.00;96447.97;10523775;28;1985;-77
2023/09/25 01:27:10;;;;;;;;;;;;;;;8.28;100.00;96445.34;10508581;28;1908;-77
2023/09/25 01:32:15;;;;;;;;;;;;;;;8.26;100.00;96460.00;10529242;28;1914;-77
2023/09/25 01:37:21;;;;;;;;;;;;;;;8.20;100.00;96447.59;10523787;28;1986;-77
2023/09/25 01:42:28;;;;;;;;;;;;;;;8.17;100.00;96445.41;10518540;28;4535;-77
2023/09/25 01:47:32;;;;;;;;;;;;;;;8.16;100.00;96441.91;10529118;28;1969;-77
2023/09/25 01:52:38;;;;;;;;;;;;;;;8.13;100.00;96442.38;10500395;28;1946;-76
2023/09/25 01:57:56;;;;;;;;;;;;;;;8.08;100.00;96439.66;10487351;28;2517;-77
2023/09/25 02:03:08;;;;;;;;;;;;;;;8.06;100.00;96428.34;10494773;28;1906;-79
2023/09/25 02:08:12;;;;;;;;;;;;;;;8.09;100.00;96420.66;10516483;28;1938;-77
2023/09/25 02:13:20;;;;;;;;;;;;;;;8.05;100.00;96419.50;10522335;28;1954;-77
2023/09/25 02:18:23;;;;;;;;;;;;;;;8.01;100.00;96410.31;10524256;28;2079;-77
2023/09/25 02:23:27;;;;;;;;;;;;;;;7.99;100.00;96401.72;10505695;28;1970;-77
2023/09/25 02:28:41;;;;;;;;;;;;;;;7.93;100.00;96402.69;10520897;28;1908;-77
2023/09/25 02:33:48;;;;;;;;;;;;;;;7.83;100.00;96399.84;10503968;28;1960;-77
2023/09/25 02:38:56;;;;;;;;;;;;;;;7.93;100.00;96402.69;10504062;28;1988;-78
2023/09/25 02:43:59;;;;;;;;;;;;;;;7.90;100.00;96402.38;10524325;28;4649;-78
2023/09/25 02:49:05;;;;;;;;;;;;;;;7.93;100.00;96386.63;10489915;28;2000;-80
2023/09/25 02:54:11;;;;;;;;;;;;;;;7.89;100.00;96390.84;10524249;28;2244;-77
2023/09/25 02:59:18;;;;;;;;;;;;;;;7.91;100.00;96383.38;10490333;28;1972;-77
2023/09/25 03:04:24;;;;;;;;;;;;;;;7.83;100.00;96381.94;10522743;28;2010;-78
2023/09/25 03:09:29;;;;;;;;;;;;;;;7.84;100.00;96380.06;10503419;28;1950;-77
2023/09/25 03:14:33;;;;;;;;;;;;;;;7.79;100.00;96372.75;10507208;28;1971;-77
2023/09/25 03:25:16;;;;;;;;;;;;;;;7.78;100.00;96356.94;10505420;28;2216;-77
2023/09/25 03:30:21;;;;;;;;;;;;;;;7.69;100.00;96358.38;10502898;28;2564;-76
2023/09/25 03:35:42;;;;;;;;;;;;;;;7.63;100.00;96360.13;10517856;28;6681;-77
2023/09/25 03:40:56;;;;;;;;;;;;;;;7.61;100.00;96364.91;10519074;28;5487;-78
2023/09/25 03:46:17;;;;;;;;;;;;;;;7.66;100.00;96357.00;10506367;28;2148;-77
2023/09/25 03:51:29;;;;;;;;;;;;;;;7.61;100.00;96353.41;10504414;28;3902;-77
2023/09/25 03:56:40;;;;;;;;;;;;;;;7.54;100.00;96354.38;10529049;28;1981;-77
2023/09/25 04:01:45;;;;;;;;;;;;;;;7.52;100.00;96358.34;10520001;28;1926;-76
2023/09/25 04:06:51;;;;;;;;;;;;;;;7.62;100.00;96349.69;10514107;28;5157;-78
2023/09/25 04:12:00;;;;;;;;;;;;;;;7.62;100.00;96352.34;10520620;28;1946;-75
2023/09/25 04:17:05;;;;;;;;;;;;;;;7.78;100.00;96341.69;10520101;28;1958;-77
2023/09/25 04:22:19;;;;;;;;;;;;;;;7.86;100.00;96343.16;10513888;28;2499;-77
2023/09/25 04:27:29;;;;;;;;;;;;;;;7.85;100.00;96339.66;10502757;28;1968;-78
2023/09/25 04:32:36;;;;;;;;;;;;;;;7.92;100.00;96331.47;10522728;28;1852;-78
2023/09/25 04:37:41;;;;;;;;;;;;;;;7.83;100.00;96335.63;10523510;28;1918;-77
2023/09/25 04:43:00;;;;;;;;;;;;;;;7.73;100.00;96340.78;10517263;28;2612;-77
2023/09/25 04:48:13;;;;;;;;;;;;;;;7.77;100.00;96339.25;10507925;28;1932;-78
2023/09/25 04:53:19;;;;;;;;;;;;;;;7.69;100.00;96336.94;10518165;28;1973;-78
2023/09/25 04:58:25;;;;;;;;;;;;;;;7.61;100.00;96337.34;10525168;28;1977;-77
2023/09/25 05:03:37;;;;;;;;;;;;;;;7.67;100.00;96347.09;10531251;28;2399;-77
2023/09/25 05:08:49;;;;;;;;;;;;;;;7.65;100.00;96351.88;10531564;28;1887;-76
2023/09/25 05:13:57;;;;;;;;;;;;;;;7.73;100.00;96348.81;10507621;28;2069;-76
2023/09/25 05:19:02;;;;;;;;;;;;;;;7.77;100.00;96349.97;10487730;28;1906;-76
2023/09/25 05:24:10;;;;;;;;;;;;;;;7.76;100.00;96353.66;10508629;28;1877;-77
2023/09/25 05:29:20;;;;;;;;;;;;;;;7.88;100.00;96350.94;10525208;28;1975;-77
2023/09/25 05:34:25;;;;;;;;;;;;;;;8.00;100.00;96340.97;10508305;28;1904;-76
2023/09/25 05:39:32;;;;;;;;;;;;;;;8.16;100.00;96347.38;10487567;28;1983;-77
2023/09/25 05:44:45;;;;;;;;;;;;;;;8.27;100.00;96339.28;10529547;28;1983;-77
2023/09/25 05:49:51;;;;;;;;;;;;;;;8.46;100.00;96342.53;10508176;28;2701;-76
2023/09/25 05:54:57;;;;;;;;;;;;;;;8.62;100.00;96340.84;10501272;28;1954;-77
2023/09/25 06:00:18;;;;;;;;;;;;;;;8.74;100.00;96346.13;10527463;28;1957;-77
2023/09/25 06:05:36;;;;;;;;;;;;;;;8.82;100.00;96346.47;10522434;28;1886;-77
2023/09/25 06:10:50;;;;;;;;;;;;;;;8.92;100.00;96351.19;10523451;28;1881;-77
2023/09/25 06:15:56;;;;;;;;;;;;;;;9.19;100.00;96348.56;10490662;28;1886;-79
2023/09/25 06:20:59;;;;;;;;;;;;;;;9.33;100.00;96351.66;10514673;28;1917;-77
2023/09/25 06:26:07;;;;;;;;;;;;;;;9.57;100.00;96350.31;10525100;28;2028;-79
2023/09/25 06:31:16;;;;;;;;;;;;;;;9.68;100.00;96354.72;10520012;28;1960;-81
2023/09/25 06:36:23;;;;;;;;;;;;;;;9.88;100.00;96364.03;10525226;28;2018;-90
2023/09/25 06:41:41;;;;;;;;;;;;;;;10.12;100.00;96365.34;10532242;28;5340;-79
2023/09/25 06:46:49;;;;;;;;;;;;;;;10.07;100.00;96367.97;10521151;28;1988;-81
2023/09/25 06:51:58;;;;;;;;;;;;;;;10.31;100.00;96363.09;10507868;28;2054;-78
2023/09/25 06:57:04;;;;;;;;;;;;;;;10.51;100.00;96357.06;10508110;28;1913;-80
2023/09/25 07:02:26;;;;;;;;;;;;;;;10.72;100.00;96356.13;10520063;28;1877;-80
2023/09/25 07:07:38;;;;;;;;;;;;;;;10.81;100.00;96354.56;10518731;28;2686;-79
2023/09/25 07:12:44;;;;;;;;;;;;;;;10.85;100.00;96356.72;10499509;28;1994;-80
2023/09/25 07:17:48;;;;;;;;;;;;;;;11.16;100.00;96360.38;10523657;28;1979;-79
2023/09/25 07:23:13;;;;;;;;;;;;;;;11.38;100.00;96361.78;10517343;28;2030;-83
2023/09/25 07:28:16;;;;;;;;;;;;;;;11.55;100.00;96350.00;10525078;28;1933;-78
2023/09/25 07:33:22;;;;;;;;;;;;;;;11.73;100.00;96354.91;10526095;28;1910;-77
2023/09/25 07:38:46;;;;;;;;;;;;;;;11.76;100.00;96357.03;10508979;28;1998;-80
2023/09/25 07:43:54;;;;;;;;;;;;;;;11.97;100.00;96357.94;10502945;28;5164;-78
2023/09/25 07:49:05;;;;;;;;;;;;;;;12.26;100.00;96358.22;10518900;28;1978;-77
2023/09/25 07:54:15;;;;;;;;;;;;;;;12.38;100.00;96353.34;10491521;28;2722;-77
2023/09/25 07:59:41;;;;;;;;;;;;;;;12.62;100.00;96366.28;10494987;28;2065;-77
2023/09/25 08:04:45;;;;;;;;;;;;;;;12.71;100.00;96367.34;10515861;28;2041;-77
2023/09/25 08:09:57;;;;;;;;;;;;;;;12.89;100.00;96352.47;10523519;28;1885;-80
2023/09/25 08:15:08;;;;;;;;;;;;;;;12.97;100.00;96354.59;10523497;28;1835;-80
2023/09/25 08:20:20;;;;;;;;;;;;;;;13.21;100.00;96365.63;10502746;28;1993;-78
2023/09/25 08:36:08;;;;;;;;;;;;;;;13.66;100.00;96344.88;10528389;28;1931;-78
2023/09/25 08:41:13;;;;;;;;;;;;;;;13.37;100.00;96353.69;10489798;28;5065;-77
2023/09/25 08:46:23;;;;;;;;;;;;;;;13.38;100.00;96358.00;10525700;28;1869;-78
2023/09/25 08:51:38;;;;;;;;;;;;;;;13.74;100.00;96360.50;10520464;28;2547;-79
2023/09/25 08:57:28;;;;;;;;;;;;;;;14.07;100.00;96345.44;10528069;28;1975;-82
2023/09/25 09:02:38;;;;;;;;;;;;;;;14.04;100.00;96348.69;10510879;28;1839;-80
2023/09/25 09:07:42;;;;;;;;;;;;;;;14.30;100.00;96343.91;10526812;28;1793;-81
2023/09/25 09:12:51;;;;;;;;;;;;;;;14.49;100.00;96342.16;10516449;28;1894;-77
2023/09/25 09:18:04;;;;;;;;;;;;;;;14.54;100.00;96328.56;10518973;28;2067;-76
2023/09/25 09:23:34;;;;;;;;;;;;;;;14.51;100.00;96337.28;10527166;28;1860;-77
2023/09/25 09:28:41;;;;;;;;;;;;;;;14.56;100.00;96337.22;10503691;28;2038;-82
2023/09/25 09:33:53;;;;;;;;;;;;;;;14.99;100.00;96339.22;10521197;28;1840;-77
2023/09/25 09:39:10;;;;;;;;;;;;;;;15.06;100.00;96337.78;10520605;28;2610;-78
2023/09/25 09:44:14;;;;;;;;;;;;;;;15.09;100.00;96329.09;10502212;28;5112;-82
2023/09/25 09:49:20;;;;;;;;;;;;;;;15.35;100.00;96331.50;10525040;28;1894;-84
2023/09/25 09:54:27;;;;;;;;;;;;;;;15.73;100.00;96318.81;10504046;28;1867;-75
2023/09/25 09:59:33;;;;;;;;;;;;;;;15.91;100.00;96319.94;10520174;28;2030;-76
2023/09/25 10:05:07;;;;;;;;;;;;;;;15.84;100.00;96316.75;10520438;28;1951;-76
2023/09/25 10:10:12;;;;;;;;;;;;;;;15.88;100.00;96315.06;10503261;28;1962;-77
2023/09/25 10:15:27;;;;;;;;;;;;;;;15.76;100.00;96318.22;10504026;28;1923;-77
2023/09/25 10:20:41;;;;;;;;;;;;;;;15.94;100.00;96306.56;10519487;28;1906;-77
2023/09/25 10:26:04;;;;;;;;;;;;;;;16.18;100.00;96300.25;10520434;28;2580;-75
2023/09/25 10:31:11;;;;;;;;;;;;;;;16.39;100.00;96289.84;10519212;28;1978;-75
2023/09/25 10:36:23;;;;;;;;;;;;;;;16.56;100.00;96281.94;10513133;28;1908;-74
2023/09/25 10:41:35;;;;;;;;;;;;;;;16.57;100.00;96294.41;10519109;28;4994;-77
2023/09/25 10:46:44;;;;;;;;;;;;;;;16.32;100.00;96284.81;10516320;28;1900;-74
2023/09/25 10:51:50;;;;;;;;;;;;;;;16.43;100.00;96305.25;10512656;28;1797;-74
2023/09/25 10:56:53;;;;;;;;;;;;;;;16.25;100.00;96297.16;10520033;28;1947;-75
2023/09/25 11:01:56;;;;;;;;;;;;;;;16.47;100.00;96289.16;10519994;28;2055;-76
2023/09/25 11:12:20;;;;;;;;;;;;;;;16.62;100.00;96277.25;10524698;28;2023;-76
2023/09/25 11:17:26;;;;;;;;;;;;;;;16.82;100.00;96276.06;10526426;28;1871;-80
2023/09/25 11:22:36;;;;;;;;;;;;;;;16.69;100.00;96275.75;10518560;28;2520;-78
2023/09/25 11:27:40;;;;;;;;;;;;;;;16.93;100.00;96274.78;10527228;28;1884;-79
2023/09/25 11:32:55;;;;;;;;;;;;;;;16.93;100.00;96277.50;10524543;28;1855;-79
2023/09/25 11:38:13;;;;;;;;;;;;;;;17.09;100.00;96273.34;10515977;28;1961;-79
2023/09/25 11:43:19;;;;;;;;;;;;;;;17.01;100.00;96271.34;10515135;28;4673;-78
2023/09/25 11:48:22;;;;;;;;;;;;;;;17.05;100.00;96264.22;10522071;28;1837;-76
2023/09/25 11:53:31;;;;;;;;;;;;;;;16.97;100.00;96278.50;10524285;28;1756;-74
2023/09/25 11:58:35;;;;;;;;;;;;;;;16.92;100.00;96275.88;10523730;28;1963;-75
2023/09/25 12:03:56;;;;;;;;;;;;;;;16.98;100.00;96280.91;10502757;28;1946;-77
2023/09/25 12:14:33;;;;;;;;;;;;;;;17.13;100.00;96279.81;10530110;28;1856;-79
2023/09/25 12:19:39;;;;;;;;;;;;;;;17.49;100.00;96274.41;10529440;28;2155;-77
2023/09/25 12:24:48;;;;;;;;;;;;;;;17.52;100.00;96276.53;10527809;28;2008;-77
2023/09/25 12:29:53;;;;;;;;;;;;;;;17.66;100.00;96286.56;10531713;28;1916;-79
2023/09/25 12:35:06;;;;;;;;;;;;;;;17.51;100.00;96293.13;10489643;28;1887;-77
2023/09/25 12:40:16;;;;;;;;;;;;;;;17.23;100.00;96276.84;10527464;28;4650;-76
2023/09/25 12:45:24;;;;;;;;;;;;;;;17.46;100.00;96279.66;10509471;28;1804;-77
2023/09/25 12:56:39;;;;;;;;;;;;;;;17.49;100.00;96268.97;10525415;28;1868;-77
2023/09/25 13:12:44;;;;;;;;;;;;;;;17.72;100.00;96250.03;10532074;28;1887;-78
2023/09/25 13:18:14;;;;;;;;;;;;;;;17.73;100.00;96266.00;10522609;28;1860;-80
2023/09/25 13:23:23;;;;;;;;;;;;;;;17.64;100.00;96264.31;10521698;28;2103;-77
2023/09/25 13:28:27;;;;;;;;;;;;;;;17.87;100.00;96262.44;10526580;28;1872;-79
2023/09/25 13:33:29;;;;;;;;;;;;;;;17.83;100.00;96254.91;10525116;28;1862;-76
2023/09/25 13:38:32;;;;;;;;;;;;;;;17.77;100.00;96252.63;10482256;28;2921;-76
2023/09/25 13:43:41;;;;;;;;;;;;;;;17.81;100.00;96253.59;10527257;28;4766;-78
2023/09/25 13:48:46;;;;;;;;;;;;;;;17.89;100.00;96241.19;10522402;28;1895;-78
2023/09/25 13:53:50;;;;;;;;;;;;;;;17.69;100.00;96240.53;10520976;28;1901;-80
2023/09/25 13:58:53;;;;;;;;;;;;;;;17.71;100.00;96246.50;10527623;28;1909;-80
2023/09/25 14:03:57;;;;;;;;;;;;;;;17.77;100.00;96258.88;10510514;28;1974;-77
2023/09/25 14:09:01;;;;;;;;;;;;;;;17.76;100.00;96246.38;10531120;28;1944;-81
2023/09/25 14:14:14;;;;;;;;;;;;;;;17.68;100.00;96249.78;10526963;28;1970;-79
2023/09/25 14:19:22;;;;;;;;;;;;;;;17.68;100.00;96247.06;10528836;28;1902;-84
2023/09/25 14:24:33;;;;;;;;;;;;;;;17.59;100.00;96239.97;10506919;28;2754;-83
2023/09/25 14:29:45;;;;;;;;;;;;;;;17.71;100.00;96245.66;10524643;28;1892;-84
2023/09/25 14:35:18;;;;;;;;;;;;;;;17.58;100.00;96250.03;10506616;28;1947;-79
2023/09/25 14:40:29;;;;;;;;;;;;;;;17.54;100.00;96249.03;10515564;28;4545;-77
2023/09/25 14:45:33;;;;;;;;;;;;;;;17.48;100.00;96250.25;10514698;28;1956;-79
2023/09/25 14:50:44;;;;;;;;;;;;;;;17.45;100.00;96253.59;10524210;28;1871;-76
2023/09/25 14:55:50;;;;;;;;;;;;;;;17.50;100.00;96248.84;10502542;28;1908;-77
2023/09/25 15:00:59;;;;;;;;;;;;;;;17.49;100.00;96240.97;10510157;28;1910;-78
2023/09/25 15:06:15;;;;;;;;;;;;;;;17.52;100.00;96241.19;10521424;28;1867;-77
2023/09/25 15:11:21;;;;;;;;;;;;;;;17.54;100.00;96238.97;10513921;28;2646;-76
2023/09/25 15:16:30;;;;;;;;;;;;;;;17.37;100.00;96238.81;10505300;28;1913;-77
2023/09/25 15:27:44;;;;;;;;;;;;;;;17.44;100.00;96247.34;10518199;28;1876;-78
2023/09/25 15:32:57;;;;;;;;;;;;;;;17.32;100.00;96246.28;10516039;28;2011;-77
2023/09/25 15:38:09;;;;;;;;;;;;;;;17.34;100.00;96246.75;10517673;28;1907;-77
2023/09/25 15:43:13;;;;;;;;;;;;;;;17.32;100.00;96257.16;10502528;28;4731;-76
2023/09/25 15:48:21;;;;;;;;;;;;;;;17.38;100.00;96261.38;10522170;28;1628;-75
2023/09/25 15:53:41;;;;;;;;;;;;;;;17.29;100.00;96264.78;10518371;28;1927;-75
2023/09/25 15:58:44;;;;;;;;;;;;;;;17.18;100.00;96262.59;10513781;28;1875;-75
2023/09/25 16:03:47;;;;;;;;;;;;;;;17.10;100.00;96272.25;10513700;28;1992;-73
2023/09/25 16:08:55;;;;;;;;;;;;;;;17.02;100.00;96279.19;10501026;28;2660;-74
2023/09/25 16:14:02;;;;;;;;;;;;;;;16.98;100.00;96264.59;10487419;28;1796;-74
2023/09/25 16:19:07;;;;;;;;;;;;;;;16.91;100.00;96274.25;10497376;28;2055;-74
2023/09/25 16:24:16;;;;;;;;;;;;;;;16.79;100.00;96276.66;10499174;28;1910;-76
2023/09/25 16:29:24;;;;;;;;;;;;;;;16.84;100.00;96276.56;10500146;28;1861;-74
2023/09/25 16:34:31;;;;;;;;;;;;;;;16.63;100.00;96285.06;10498709;28;2112;-76
2023/09/25 16:39:35;;;;;;;;;;;;;;;16.48;100.00;96285.38;10502728;28;1914;-73
2023/09/25 16:44:41;;;;;;;;;;;;;;;16.45;100.00;96284.03;10522773;28;4803;-73
2023/09/25 16:49:45;;;;;;;;;;;;;;;16.44;100.00;96282.44;10503951;28;1883;-73
2023/09/25 16:54:49;;;;;;;;;;;;;;;16.31;100.00;96283.19;10526345;28;2542;-74
2023/09/25 16:59:52;;;;;;;;;;;;;;;16.15;100.00;96290.78;10508999;28;1917;-74
2023/09/25 17:04:57;;;;;;;;;;;;;;;15.85;100.00;96296.69;10529221;28;1908;-75
2023/09/25 17:10:04;;;;;;;;;;;;;;;15.80;100.00;96294.06;10525053;28;1966;-75
2023/09/25 17:15:09;;;;;;;;;;;;;;;15.71;100.00;96293.09;10510686;28;1904;-73
2023/09/25 17:20:16;;;;;;;;;;;;;;;15.74;100.00;96304.16;10510074;28;1898;-74
2023/09/25 17:25:22;;;;;;;;;;;;;;;15.49;100.00;96310.72;10525778;28;1898;-73
2023/09/25 17:30:25;;;;;;;;;;;;;;;15.25;100.00;96307.25;10509817;28;1821;-76
2023/09/25 17:35:30;;;;;;;;;;;;;;;15.01;100.00;96318.88;10529732;28;1961;-75
2023/09/25 17:40:35;;;;;;;;;;;;;;;15.07;100.00;96325.03;10506122;28;4801;-76
2023/09/25 17:45:39;;;;;;;;;;;;;;;14.92;100.00;96323.31;10530079;28;1876;-76
2023/09/25 17:50:45;;;;;;;;;;;;;;;14.73;100.00;96333.28;10512388;28;1851;-74
2023/09/25 17:55:55;;;;;;;;;;;;;;;14.59;100.00;96336.66;10518771;28;1898;-74
2023/09/25 18:01:00;;;;;;;;;;;;;;;14.36;100.00;96334.66;10526188;28;1989;-74
2023/09/25 18:06:05;;;;;;;;;;;;;;;14.23;100.00;96344.22;10506418;28;1893;-74
2023/09/25 18:11:09;;;;;;;;;;;;;;;14.09;100.00;96354.06;10525376;28;1901;-72
2023/09/25 18:16:21;;;;;;;;;;;;;;;14.00;100.00;96345.78;10505681;28;1914;-74
2023/09/25 18:21:30;;;;;;;;;;;;;;;13.98;100.00;96350.63;10510621;28;1979;-73
2023/09/25 18:26:46;;;;;;;;;;;;;;;13.89;100.00;96346.13;10523548;28;2362;-72
2023/09/25 18:32:03;;;;;;;;;;;;;;;13.82;100.00;96349.13;10523761;28;1854;-72
2023/09/25 18:37:06;;;;;;;;;;;;;;;13.71;100.00;96358.38;10522280;28;1844;-75
2023/09/25 18:42:09;;;;;;;;;;;;;;;13.67;100.00;96343.81;10508636;28;4654;-71
2023/09/25 18:47:14;;;;;;;;;;;;;;;13.51;100.00;96341.19;10525570;28;1929;-72
2023/09/25 18:52:19;;;;;;;;;;;;;;;13.44;100.00;96332.59;10484241;28;1853;-73
2023/09/25 18:57:21;;;;;;;;;;;;;;;13.36;100.00;96335.88;10523784;28;1902;-73
2023/09/25 19:02:27;;;;;;;;;;;;;;;13.42;100.00;96344.75;10522945;28;1902;-71
2023/09/25 19:07:34;;;;;;;;;;;;;;;13.28;100.00;96333.75;10520838;28;1829;-73
2023/09/25 19:12:43;;;;;;;;;;;;;;;13.26;100.00;96335.91;10525092;28;2378;-73
2023/09/25 19:17:49;;;;;;;;;;;;;;;13.07;100.00;96348.38;10505337;28;2248;-74
2023/09/25 19:22:56;;;;;;;;;;;;;;;12.97;100.00;96350.00;10524653;28;1914;-72
2023/09/25 19:28:02;;;;;;;;;;;;;;;12.84;100.00;96350.59;10518760;28;1923;-72
2023/09/25 19:33:07;;;;;;;;;;;;;;;12.77;100.00;96346.56;10517244;28;1802;-74
2023/09/25 19:38:14;;;;;;;;;;;;;;;12.73;100.00;96357.09;10466840;28;1908;-73
2023/09/25 19:48:46;;;;;;;;;;;;;;;12.59;100.00;96342.53;10523580;28;1904;-73
2023/09/25 19:53:49;;;;;;;;;;;;;;;12.49;100.00;96347.97;10523807;28;1845;-74
2023/09/25 19:58:54;;;;;;;;;;;;;;;12.38;100.00;96347.97;10502368;28;2743;-73
2023/09/25 20:03:57;;;;;;;;;;;;;;;12.32;100.00;96348.25;10522901;28;1921;-74
2023/09/25 20:09:01;;;;;;;;;;;;;;;12.28;100.00;96356.06;10499813;28;2191;-74
2023/09/25 20:14:06;;;;;;;;;;;;;;;12.21;100.00;96362.78;10503001;28;1966;-72
2023/09/25 20:19:09;;;;;;;;;;;;;;;12.12;100.00;96359.81;10520142;28;1940;-71
2023/09/25 20:24:12;;;;;;;;;;;;;;;12.08;100.00;96359.53;10503169;28;2269;-72
2023/09/25 20:29:18;;;;;;;;;;;;;;;12.05;100.00;96362.00;10509990;28;1857;-75
2023/09/25 20:34:21;;;;;;;;;;;;;;;12.03;100.00;96366.84;10511726;28;1820;-74
2023/09/25 20:39:27;;;;;;;;;;;;;;;12.04;100.00;96360.38;10495773;28;1896;-72
2023/09/25 20:44:30;;;;;;;;;;;;;;;12.02;100.00;96363.31;10510864;28;4671;-72
2023/09/25 20:49:36;;;;;;;;;;;;;;;11.98;100.00;96369.53;10513242;28;1798;-72
2023/09/25 20:54:42;;;;;;;;;;;;;;;11.99;100.00;96363.84;10529445;28;1883;-73
2023/09/25 20:59:48;;;;;;;;;;;;;;;11.88;100.00;96354.94;10512500;28;1768;-71
2023/09/25 21:04:51;;;;;;;;;;;;;;;11.81;100.00;96358.97;10531251;28;1914;-77
2023/09/25 21:09:55;;;;;;;;;;;;;;;11.74;100.00;96350.31;10496654;28;1857;-77
2023/09/25 21:15:04;;;;;;;;;;;;;;;11.72;100.00;96361.38;10511946;28;1833;-75
2023/09/25 21:20:15;;;;;;;;;;;;;;;11.68;100.00;96360.28;10507968;28;1986;-75
2023/09/25 21:25:20;;;;;;;;;;;;;;;11.61;100.00;96360.53;10529468;28;1979;-72
2023/09/25 21:30:24;;;;;;;;;;;;;;;11.55;100.00;96347.31;10530876;28;2440;-72
2023/09/25 21:35:33;;;;;;;;;;;;;;;11.61;100.00;96354.34;10530934;28;2228;-71
2023/09/25 21:41:02;;;;;;;;;;;;;;;11.56;100.00;96351.63;10529783;28;4841;-71
2023/09/25 21:46:21;;;;;;;;;;;;;;;11.52;100.00;96353.25;10510566;28;1763;-71
2023/09/25 21:51:28;;;;;;;;;;;;;;;11.48;100.00;96352.16;10528129;28;1910;-72
2023/09/25 21:57:02;;;;;;;;;;;;;;;11.42;100.00;96345.94;10533124;28;1867;-72
2023/09/25 22:02:06;;;;;;;;;;;;;;;11.33;100.00;96337.56;10532228;28;1922;-71
2023/09/25 22:07:11;;;;;;;;;;;;;;;11.27;100.00;96338.63;10527510;28;1889;-71
2023/09/25 22:12:15;;;;;;;;;;;;;;;11.21;100.00;96339.69;10507830;28;2566;-71
2023/09/25 22:17:21;;;;;;;;;;;;;;;11.16;100.00;96331.59;10526974;28;1900;-71
2023/09/25 22:22:29;;;;;;;;;;;;;;;11.04;100.00;96331.00;10527542;28;1963;-74
2023/09/25 22:27:36;;;;;;;;;;;;;;;11.03;100.00;96335.56;10526114;28;1853;-71
2023/09/25 22:32:38;;;;;;;;;;;;;;;10.97;100.00;96322.34;10504152;28;1843;-70
2023/09/25 22:37:46;;;;;;;;;;;;;;;10.94;100.00;96314.78;10524131;28;1860;-76
2023/09/25 22:42:53;;;;;;;;;;;;;;;10.95;100.00;96321.81;10522533;28;4543;-76
2023/09/25 22:48:09;;;;;;;;;;;;;;;10.91;100.00;96318.03;10527720;28;1891;-75
2023/09/25 22:53:15;;;;;;;;;;;;;;;10.90;100.00;96316.41;10488344;28;2114;-75
2023/09/25 22:58:24;;;;;;;;;;;;;;;10.88;100.00;96313.16;10490568;28;2656;-75
2023/09/25 23:03:33;;;;;;;;;;;;;;;10.84;100.00;96310.19;10505977;28;1949;-75
2023/09/25 23:08:37;;;;;;;;;;;;;;;10.79;100.00;96305.59;10524938;28;1911;-74
2023/09/25 23:13:43;;;;;;;;;;;;;;;10.76;100.00;96303.44;10493667;28;2069;-75
2023/09/25 23:18:47;;;;;;;;;;;;;;;10.65;100.00;96304.44;10491935;28;1910;-75
2023/09/25 23:23:52;;;;;;;;;;;;;;;10.62;100.00;96298.78;10500185;28;1971;-74
2023/09/25 23:28:57;;;;;;;;;;;;;;;10.55;100.00;96301.69;10519741;28;1879;-73
2023/09/25 23:34:10;;;;;;;;;;;;;;;10.52;100.00;96299.53;10522116;28;1994;-76
2023/09/25 23:39:18;;;;;;;;;;;;;;;10.47;100.00;96304.88;10503366;28;1859;-74
2023/09/25 23:44:23;;;;;;;;;;;;;;;10.44;100.00;96300.03;10502640;28;4623;-74
2023/09/25 23:49:26;;;;;;;;;;;;;;;10.41;100.00;96295.97;10520922;28;1923;-74
2023/09/25 23:54:34;;;;;;;;;;;;;;;10.44;100.00;96305.41;10519929;28;1896;-75
2023/09/25 23:59:46;;;;;;;;;;;;;;;10.49;100.00;96305.41;10501874;28;1986;-75
